createdAt,value
2023-01-07T00:02:17.848Z,101186.83
2023-01-07T00:07:40.116Z,101186.03
2023-01-07T00:13:02.338Z,101193.06
2023-01-07T00:18:24.575Z,101192.33
2023-01-07T00:23:49.191Z,101193.13
2023-01-07T00:29:13.277Z,101197.32
2023-01-07T00:34:35.538Z,101193.51
2023-01-07T00:39:57.719Z,101193.34
2023-01-07T00:45:21.024Z,101199.52
2023-01-07T00:50:46.332Z,101201.34
2023-01-07T00:56:09.207Z,101200.42
2023-01-07T01:01:32.205Z,101205.06
2023-01-07T01:06:54.523Z,101196.96
2023-01-07T01:12:17.423Z,101203.63
2023-01-07T01:17:40.837Z,101190.70
2023-01-07T01:23:03.309Z,101186.00
2023-01-07T01:28:25.557Z,101189.52
2023-01-07T01:33:48.219Z,101187.14
2023-01-07T01:39:10.629Z,101186.98
2023-01-07T01:45:00.447Z,101195.21
2023-01-07T01:50:42.448Z,101195.59
2023-01-07T01:56:09.749Z,101206.28
2023-01-07T02:01:32.772Z,101215.16
2023-01-07T02:07:09.565Z,101211.56
2023-01-07T02:12:54.536Z,101222.50
2023-01-07T02:18:45.154Z,101210.33
2023-01-07T02:24:53.940Z,101204.91
2023-01-07T02:30:33.024Z,101208.94
2023-01-07T02:36:06.205Z,101216.44
2023-01-07T02:41:36.161Z,101228.66
2023-01-07T02:47:33.453Z,101221.62
2023-01-07T02:52:56.019Z,101229.53
2023-01-07T02:59:00.975Z,101230.37
2023-01-07T03:04:50.084Z,101227.60
2023-01-07T03:10:39.104Z,101222.96
2023-01-07T03:16:09.355Z,101218.41
2023-01-07T03:21:36.258Z,101227.11
2023-01-07T03:27:11.707Z,101227.38
2023-01-07T03:32:50.355Z,101239.36
2023-01-07T03:38:14.727Z,101231.11
2023-01-07T03:43:38.582Z,101223.13
2023-01-07T03:49:00.823Z,101232.95
2023-01-07T04:00:02.155Z,101243.48
2023-01-07T04:05:24.828Z,101235.99
2023-01-07T04:10:47.567Z,101244.81
2023-01-07T04:16:10.062Z,101230.63
2023-01-07T04:21:32.290Z,101241.95
2023-01-07T04:26:54.793Z,101250.58
2023-01-07T04:32:17.034Z,101235.41
2023-01-07T04:37:39.264Z,101237.80
2023-01-07T04:43:01.545Z,101224.28
2023-01-07T04:48:23.868Z,101238.08
2023-01-07T04:53:46.146Z,101243.24
2023-01-07T04:59:08.362Z,101240.59
2023-01-07T05:04:30.719Z,101230.63
2023-01-07T05:09:53.022Z,101231.48
2023-01-07T05:15:16.196Z,101234.14
2023-01-07T05:20:38.507Z,101243.65
2023-01-07T05:26:01.512Z,101245.44
2023-01-07T05:31:24.044Z,101241.92
2023-01-07T05:36:46.366Z,101240.99
2023-01-07T05:42:08.641Z,101245.31
2023-01-07T05:47:31.157Z,101244.11
2023-01-07T05:52:53.321Z,101248.40
2023-01-07T05:58:15.719Z,101257.97
2023-01-07T06:03:38.526Z,101256.95
2023-01-07T06:09:00.902Z,101255.09
2023-01-07T06:14:23.354Z,101256.89
2023-01-07T06:19:45.592Z,101257.75
2023-01-07T06:25:07.874Z,101261.20
2023-01-07T06:30:30.874Z,101275.23
2023-01-07T06:35:53.143Z,101277.86
2023-01-07T06:41:15.578Z,101291.02
2023-01-07T06:46:38.259Z,101281.13
2023-01-07T06:52:00.695Z,101293.42
2023-01-07T06:57:22.926Z,101298.70
2023-01-07T07:02:46.494Z,101295.27
2023-01-07T07:08:09.069Z,101313.78
2023-01-07T07:13:31.280Z,101309.08
2023-01-07T07:18:53.548Z,101316.44
2023-01-07T07:24:17.033Z,101327.01
2023-01-07T07:29:39.414Z,101326.94
2023-01-07T07:35:02.189Z,101321.69
2023-01-07T07:40:25.286Z,101315.39
2023-01-07T07:45:49.781Z,101332.91
2023-01-07T07:51:22.684Z,101327.05
2023-01-07T07:56:45.646Z,101331.98
2023-01-07T08:02:08.030Z,101332.84
2023-01-07T08:07:32.090Z,101332.65
2023-01-07T08:12:57.776Z,101323.81
2023-01-07T08:18:24.011Z,101333.45
2023-01-07T08:23:46.787Z,101333.70
2023-01-07T08:29:09.119Z,101330.25
2023-01-07T08:34:31.807Z,101331.98
2023-01-07T08:39:54.311Z,101322.43
2023-01-07T08:45:18.030Z,101316.44
2023-01-07T08:50:41.640Z,101315.80
2023-01-07T08:56:07.201Z,101320.92
2023-01-07T09:01:32.489Z,101318.17
2023-01-07T09:06:55.014Z,101303.95
2023-01-07T09:12:18.041Z,101305.27
2023-01-07T09:17:40.445Z,101314.91
2023-01-07T09:23:02.641Z,101319.88
2023-01-07T09:28:25.027Z,101325.38
2023-01-07T09:33:47.499Z,101328.84
2023-01-07T09:39:10.070Z,101334.31
2023-01-07T09:44:52.502Z,101339.09
2023-01-07T09:50:20.128Z,101334.31
2023-01-07T09:56:11.316Z,101333.64
2023-01-07T10:01:49.474Z,101336.82
2023-01-07T10:07:39.329Z,101338.48
2023-01-07T10:13:33.088Z,101338.03
2023-01-07T10:19:14.285Z,101337.91
2023-01-07T10:24:46.989Z,101328.11
2023-01-07T10:30:24.695Z,101327.94
2023-01-07T10:35:49.559Z,101318.66
2023-01-07T10:41:16.668Z,101312.60
2023-01-07T10:47:07.890Z,101311.55
2023-01-07T10:52:57.503Z,101304.36
2023-01-07T10:58:24.130Z,101300.97
2023-01-07T11:03:48.106Z,101291.56
2023-01-07T11:09:11.472Z,101290.41
2023-01-07T11:14:37.524Z,101286.08
2023-01-07T11:20:02.347Z,101270.86
2023-01-07T11:25:42.979Z,101269.94
2023-01-07T11:31:11.711Z,101257.34
2023-01-07T11:36:45.565Z,101260.09
2023-01-07T11:42:39.133Z,101264.19
2023-01-07T11:48:15.211Z,101250.16
2023-01-07T11:54:05.720Z,101241.25
2023-01-07T11:59:36.031Z,101237.45
2023-01-07T12:04:58.388Z,101235.28
2023-01-07T12:10:32.097Z,101231.76
2023-01-07T12:16:14.203Z,101235.55
2023-01-07T12:21:50.197Z,101230.48
2023-01-07T12:27:31.343Z,101235.04
2023-01-07T12:33:31.443Z,101234.55
2023-01-07T12:39:03.594Z,101227.38
2023-01-07T12:44:34.160Z,101221.13
2023-01-07T12:50:04.060Z,101216.56
2023-01-07T12:55:39.245Z,101216.35
2023-01-07T13:06:57.590Z,101207.88
2023-01-07T13:18:27.603Z,101210.47
2023-01-07T13:24:09.651Z,101208.44
2023-01-07T13:30:11.180Z,101202.98
2023-01-07T13:36:06.805Z,101198.48
2023-01-07T13:41:40.553Z,101191.38
2023-01-07T13:47:05.073Z,101203.67
2023-01-07T13:52:41.049Z,101201.80
2023-01-07T13:58:03.891Z,101202.59
2023-01-07T14:04:04.383Z,101197.27
2023-01-07T14:09:31.384Z,101186.45
2023-01-07T14:15:10.720Z,101189.83
2023-01-07T14:20:41.119Z,101183.65
2023-01-07T14:26:25.175Z,101187.17
2023-01-07T14:31:51.246Z,101186.37
2023-01-07T14:37:30.372Z,101177.53
2023-01-07T14:43:00.955Z,101186.16
2023-01-07T14:48:39.712Z,101186.92
2023-01-07T14:54:22.136Z,101187.78
2023-01-07T14:59:55.429Z,101197.42
2023-01-07T15:05:34.967Z,101183.11
2023-01-07T15:11:17.413Z,101191.09
2023-01-07T15:16:41.607Z,101193.64
2023-01-07T15:22:12.458Z,101190.83
2023-01-07T15:27:56.325Z,101188.10
2023-01-07T15:33:39.459Z,101177.72
2023-01-07T15:39:08.695Z,101179.86
2023-01-07T15:44:49.659Z,101174.39
2023-01-07T15:50:39.841Z,101159.09
2023-01-07T15:56:15.233Z,101155.48
2023-01-07T16:01:39.533Z,101158.94
2023-01-07T16:07:02.589Z,101150.69
2023-01-07T16:12:43.836Z,101150.19
2023-01-07T16:18:16.798Z,101144.79
2023-01-07T16:23:46.377Z,101145.50
2023-01-07T16:29:19.355Z,101148.91
2023-01-07T16:34:49.702Z,101148.76
2023-01-07T16:40:12.648Z,101142.41
2023-01-07T16:45:51.952Z,101132.55
2023-01-07T16:51:35.621Z,101138.69
2023-01-07T16:57:03.663Z,101134.14
2023-01-07T17:02:48.102Z,101128.59
2023-01-07T17:08:18.983Z,101132.93
2023-01-07T17:13:46.924Z,101123.13
2023-01-07T17:19:31.307Z,101122.19
2023-01-07T17:24:58.807Z,101120.31
2023-01-07T17:30:25.398Z,101121.25
2023-01-07T17:35:54.529Z,101122.90
2023-01-07T17:41:36.331Z,101123.77
2023-01-07T17:46:59.183Z,101116.71
2023-01-07T17:52:22.215Z,101121.17
2023-01-07T17:57:45.089Z,101126.42
2023-01-07T18:03:10.362Z,101122.82
2023-01-07T18:08:34.245Z,101120.89
2023-01-07T18:13:56.951Z,101112.82
2023-01-07T18:19:19.721Z,101104.67
2023-01-07T18:24:42.120Z,101098.32
2023-01-07T18:30:04.400Z,101100.20
2023-01-07T18:35:27.323Z,101094.87
2023-01-07T18:40:49.987Z,101091.42
2023-01-07T18:46:17.591Z,101091.34
2023-01-07T18:51:39.771Z,101093.07
2023-01-07T18:57:02.156Z,101095.66
2023-01-07T19:02:28.841Z,101089.34
2023-01-07T19:07:53.461Z,101086.67
2023-01-07T19:13:15.853Z,101089.17
2023-01-07T19:18:40.360Z,101078.52
2023-01-07T19:24:04.798Z,101083.55
2023-01-07T19:29:27.519Z,101070.06
2023-01-07T19:34:51.623Z,101066.54
2023-01-07T19:40:17.960Z,101062.06
2023-01-07T19:45:40.539Z,101050.55
2023-01-07T19:51:07.764Z,101050.63
2023-01-07T19:56:31.800Z,101060.27
2023-01-07T20:01:55.408Z,101045.05
2023-01-07T20:07:18.123Z,101045.99
2023-01-07T20:12:40.412Z,101047.72
2023-01-07T20:18:02.814Z,101038.77
2023-01-07T20:23:26.067Z,101039.64
2023-01-07T20:28:48.609Z,101041.23
2023-01-07T20:34:12.906Z,101046.31
2023-01-07T20:39:36.236Z,101030.39
2023-01-07T20:44:58.788Z,101028.76
2023-01-07T20:50:21.219Z,101027.03
2023-01-07T20:55:43.609Z,101022.48
2023-01-07T21:01:07.852Z,101020.77
2023-01-07T21:06:32.564Z,101013.63
2023-01-07T21:11:54.905Z,101006.57
2023-01-07T21:17:17.222Z,101007.52
2023-01-07T21:22:39.506Z,101013.79
2023-01-07T21:28:03.548Z,101004.94
2023-01-07T21:33:25.964Z,101010.31
2023-01-07T21:38:50.201Z,101003.17
2023-01-07T21:44:13.135Z,100992.52
2023-01-07T21:49:36.366Z,100985.46
2023-01-07T21:54:59.390Z,100991.66
2023-01-07T22:00:23.177Z,100984.60
2023-01-07T22:05:45.629Z,100992.68
2023-01-07T22:11:08.515Z,100980.30
2023-01-07T22:16:32.605Z,100968.99
2023-01-07T22:21:54.938Z,100970.19
2023-01-07T22:27:17.650Z,100967.82
2023-01-07T22:32:39.821Z,100954.88
2023-01-07T22:38:02.695Z,100955.13
2023-01-07T22:43:31.190Z,100949.96
2023-01-07T22:48:54.323Z,100929.81
2023-01-07T22:54:18.188Z,100936.24
2023-01-07T22:59:40.414Z,100933.71
2023-01-07T23:05:02.585Z,100929.41
2023-01-07T23:10:25.055Z,100925.11
2023-01-07T23:15:48.003Z,100907.48
2023-01-07T23:21:11.143Z,100904.95
2023-01-07T23:26:34.050Z,100891.88
2023-01-07T23:31:56.365Z,100899.47
2023-01-07T23:37:18.719Z,100898.73
2023-01-07T23:42:41.665Z,100878.55
2023-01-07T23:48:06.882Z,100867.41
2023-01-07T23:53:29.791Z,100871.17
2023-01-07T23:58:52.365Z,100875.69
